createdAt,value
2019-01-29T00:22:40.301Z,0.94
2019-01-29T00:51:17.462Z,0.69
2019-01-29T01:19:55.575Z,0.42
2019-01-29T01:48:28.472Z,0.23
2019-01-29T02:17:02.828Z,0.12
2019-01-29T02:45:40.921Z,0.23
2019-01-29T03:14:20.245Z,0.44
2019-01-29T03:42:58.704Z,0.52
2019-01-29T04:11:37.854Z,0.72
2019-01-29T04:40:14.676Z,0.59
2019-01-29T05:08:52.857Z,0.33
2019-01-29T05:37:28.904Z,-0.37
2019-01-29T06:06:03.598Z,-0.46
2019-01-29T06:34:41.864Z,-0.23
2019-01-29T07:03:23.412Z,0.11
2019-01-29T07:31:58.993Z,0.19
2019-01-29T08:00:43.846Z,0.62
2019-01-29T08:29:18.881Z,0.88
2019-01-29T08:57:57.295Z,1.71
2019-01-29T09:26:30.827Z,2.03
2019-01-29T09:55:14.092Z,2.59
2019-01-29T10:23:55.072Z,2.86
2019-01-29T10:52:38.738Z,3.27
2019-01-29T11:21:11.959Z,3.63
2019-01-29T11:49:53.262Z,3.8
2019-01-29T12:18:27.951Z,3.63
2019-01-29T12:47:06.971Z,3.6
2019-01-29T13:15:40.686Z,3.13
2019-01-29T13:44:18.406Z,2.97
2019-01-29T14:12:58.616Z,3.04
2019-01-29T14:41:32.291Z,2.41
2019-01-29T15:10:05.989Z,1.86
2019-01-29T15:38:42.785Z,1.43
2019-01-29T16:07:19.666Z,0.99
2019-01-29T16:35:50.883Z,0.45
2019-01-29T17:04:28.350Z,0.37
2019-01-29T17:32:57.954Z,0.03
2019-01-29T18:01:34.865Z,-0.17
2019-01-29T18:30:09.204Z,-0.31
2019-01-29T18:58:47.815Z,-0.34
2019-01-29T19:27:20.392Z,-0.73
2019-01-29T19:55:58.085Z,-0.89
2019-01-29T20:24:36.992Z,-0.88
2019-01-29T20:53:11.263Z,-1.1
2019-01-29T21:21:46.784Z,-1.46
2019-01-29T21:50:18.154Z,-1.76
2019-01-29T22:18:54.003Z,-2.12
2019-01-29T22:47:27.817Z,-2.22
2019-01-29T23:16:04.341Z,-2.6
2019-01-29T23:44:36.755Z,-2.81
